Time;durP1;ratioP1;P1;durP2;ratioP2;P2;SDS_P1;SDS_P2;PMS_P1;PMS_P2;Temp;Humidity;BMP_temperature;BMP_pressure;BME280_temperature;BME280_humidity;BME280_pressure;Samples;Min_cycle;Max_cycle;Signal;HPM_P1;HPM_P2
2024/01/03 00:51:48;;;;;;;0.10;0.00;;;;;;;16.36;100.00;100362.44;10438359;27;97372;-80
2024/01/03 00:56:53;;;;;;;0.28;0.10;;;;;;;16.38;100.00;100367.63;10413904;28;96765;-80
2024/01/03 01:01:58;;;;;;;1.42;1.00;;;;;;;16.32;100.00;100365.38;10413606;28;96859;-80
2024/01/03 01:07:03;;;;;;;;;;;;;;;16.30;100.00;100367.28;10413510;28;96581;-80
2024/01/03 01:12:06;;;;;;;0.17;0.17;;;;;;;16.19;100.00;100375.03;10412526;28;96982;-80
2024/01/03 01:17:10;;;;;;;1.00;0.20;;;;;;;16.10;100.00;100370.28;10412770;28;96669;-80
2024/01/03 01:22:15;;;;;;;1.88;0.10;;;;;;;16.00;100.00;100379.72;10413125;28;96697;-80
2024/01/03 01:27:18;;;;;;;0.32;0.20;;;;;;;15.92;100.00;100398.78;10413338;28;97592;-80
2024/01/03 01:32:21;;;;;;;0.25;0.20;;;;;;;15.87;100.00;100414.97;10412436;27;96878;-80
2024/01/03 01:37:26;;;;;;;0.10;0.03;;;;;;;15.85;100.00;100419.53;10412041;28;96856;-80
2024/01/03 01:42:31;;;;;;;0.10;0.10;;;;;;;15.79;100.00;100425.19;10412014;28;96915;-80
2024/01/03 01:47:35;;;;;;;0.20;0.13;;;;;;;15.76;100.00;100430.66;10411132;28;96944;-80
2024/01/03 01:52:42;;;;;;;0.52;0.20;;;;;;;15.73;100.00;100422.91;10383696;28;97382;-80
2024/01/03 01:57:46;;;;;;;0.28;0.15;;;;;;;15.73;100.00;100422.91;10384337;28;96819;-80
2024/01/03 02:02:50;;;;;;;0.00;0.00;;;;;;;15.73;100.00;100430.00;10383880;28;96747;-80
2024/01/03 02:07:55;;;;;;;0.10;0.00;;;;;;;15.70;100.00;100415.09;10383855;28;96644;-80
2024/01/03 02:12:59;;;;;;;0.57;0.13;;;;;;;15.73;100.00;100414.06;10383334;28;96810;-80
2024/01/03 02:18:04;;;;;;;0.17;0.10;;;;;;;15.75;100.00;100420.97;10383587;28;97558;-80
2024/01/03 02:23:10;;;;;;;0.00;0.00;;;;;;;15.74;100.00;100427.25;10382921;28;96730;-80
2024/01/03 02:28:13;;;;;;;0.00;0.00;;;;;;;15.80;100.00;100439.31;10383494;28;96590;-80
2024/01/03 02:33:17;;;;;;;0.25;0.15;;;;;;;15.82;100.00;100469.28;10383088;28;97309;-80
2024/01/03 02:38:22;;;;;;;0.00;0.00;;;;;;;15.84;100.00;100470.88;10383019;28;96809;-80
2024/01/03 02:43:26;;;;;;;0.05;0.03;;;;;;;15.86;100.00;100469.00;10424574;28;97426;-80
2024/01/03 02:48:29;;;;;;;0.63;0.20;;;;;;;15.77;100.00;100474.81;10423617;28;96690;-80
2024/01/03 02:53:34;;;;;;;0.22;0.15;;;;;;;15.70;100.00;100473.47;10416910;28;97417;-80
2024/01/03 02:58:38;;;;;;;0.20;0.10;;;;;;;15.67;100.00;100470.13;10382235;28;97474;-80
2024/01/03 03:03:42;;;;;;;0.10;0.10;;;;;;;15.65;100.00;100472.00;10380795;28;96821;-80
2024/01/03 03:08:47;;;;;;;0.20;0.20;;;;;;;15.63;100.00;100464.13;10382194;28;97136;-80
2024/01/03 03:13:52;;;;;;;0.20;0.20;;;;;;;15.62;100.00;100446.53;10381534;28;96670;-80
2024/01/03 03:18:56;;;;;;;1.10;0.30;;;;;;;15.70;100.00;100452.22;10381287;28;96879;-80
2024/01/03 03:24:01;;;;;;;0.40;0.20;;;;;;;15.72;100.00;100468.06;10381619;28;96589;-80
2024/01/03 03:29:05;;;;;;;0.15;0.10;;;;;;;15.76;100.00;100486.38;10381258;28;96787;-80
2024/01/03 03:34:09;;;;;;;0.20;0.17;;;;;;;15.76;100.00;100475.78;10380832;28;96713;-80
2024/01/03 03:39:14;;;;;;;0.07;0.07;;;;;;;15.77;100.00;100464.22;10388765;28;96897;-80
2024/01/03 03:44:18;;;;;;;0.28;0.20;;;;;;;15.67;100.00;100463.03;10417649;28;97307;-80
2024/01/03 03:49:22;;;;;;;0.10;0.10;;;;;;;15.58;100.00;100468.84;10379880;28;96779;-80
2024/01/03 03:54:27;;;;;;;0.08;0.08;;;;;;;15.48;100.00;100480.94;10380492;28;96759;-80
2024/01/03 03:59:30;;;;;;;0.00;0.00;;;;;;;15.45;100.00;100482.88;10380263;28;96765;-80
2024/01/03 04:04:34;;;;;;;0.10;0.00;;;;;;;15.41;100.00;100461.00;10379686;28;96660;-80
2024/01/03 04:09:39;;;;;;;0.05;0.05;;;;;;;15.41;100.00;100468.09;10380026;28;97101;-80
2024/01/03 04:14:42;;;;;;;0.47;0.10;;;;;;;15.39;100.00;100460.22;10379483;28;96873;-80
2024/01/03 04:19:46;;;;;;;0.00;0.00;;;;;;;15.35;100.00;100466.66;10379097;28;96705;-80
2024/01/03 04:24:51;;;;;;;0.40;0.20;;;;;;;15.36;100.00;100472.78;10379496;28;97187;-80
2024/01/03 04:29:54;;;;;;;;;;;;;;;15.35;100.00;100473.75;10380058;28;96779;-80
2024/01/03 04:34:58;;;;;;;0.10;0.00;;;;;;;15.31;100.00;100469.53;10378970;28;96868;-80
2024/01/03 04:40:03;;;;;;;0.20;0.00;;;;;;;15.22;100.00;100492.09;10393653;28;96683;-80
2024/01/03 04:45:07;;;;;;;0.30;0.13;;;;;;;15.03;99.64;100517.88;10420640;28;96783;-80
2024/01/03 04:50:11;;;;;;;3.63;0.20;;;;;;;14.97;99.09;100531.47;10420118;28;96870;-80
2024/01/03 04:55:16;;;;;;;0.55;0.22;;;;;;;14.85;99.25;100518.88;10391090;28;96633;-80
2024/01/03 05:00:19;;;;;;;;;;;;;;;14.71;99.09;100490.44;10379014;28;97111;-79
2024/01/03 05:05:22;;;;;;;2.88;0.32;;;;;;;14.63;98.85;100492.63;10378929;28;97115;-80
2024/01/03 05:10:27;;;;;;;0.75;0.30;;;;;;;14.54;99.29;100503.69;10378236;28;96736;-80
2024/01/03 05:15:30;;;;;;;;;;;;;;;14.34;98.33;100517.13;10378876;28;96741;-79
2024/01/03 05:20:34;;;;;;;1.80;0.45;;;;;;;14.31;99.00;100522.56;10377919;28;96712;-79
2024/01/03 05:25:39;;;;;;;1.88;0.60;;;;;;;14.29;99.48;100544.75;10381393;28;97745;-80
2024/01/03 05:30:43;;;;;;;0.82;0.20;;;;;;;14.28;99.72;100583.59;10385114;28;97373;-80
2024/01/03 05:35:46;;;;;;;1.50;0.30;;;;;;;14.28;99.95;100588.88;10384971;28;96625;-80
2024/01/03 05:40:51;;;;;;;1.67;0.35;;;;;;;14.36;99.84;100594.69;10405693;28;97071;-80
2024/01/03 05:45:54;;;;;;;;;;;;;;;14.28;100.00;100620.66;10399917;28;97024;-80
2024/01/03 05:50:58;;;;;;;0.70;0.32;;;;;;;14.31;100.00;100620.53;10384198;28;96937;-80
2024/01/03 05:56:05;;;;;;;0.17;0.15;;;;;;;14.27;100.00;100639.25;10384198;28;96801;-80
2024/01/03 06:01:09;;;;;;;2.55;0.20;;;;;;;14.32;100.00;100648.69;10384063;28;97103;-80
2024/01/03 06:06:12;;;;;;;1.15;0.32;;;;;;;14.41;100.00;100634.16;10384013;28;96683;-80
2024/01/03 06:11:17;;;;;;;1.83;0.30;;;;;;;14.49;99.55;100645.22;10383773;28;96763;-80
2024/01/03 06:16:21;;;;;;;2.38;0.30;;;;;;;14.56;99.15;100636.91;10383433;28;96855;-80
2024/01/03 06:21:26;;;;;;;1.15;0.30;;;;;;;14.60;99.32;100661.44;10382865;28;96642;-80
2024/01/03 06:26:32;;;;;;;0.60;0.30;;;;;;;14.64;99.01;100644.47;10383846;28;96870;-80
2024/01/03 06:31:36;;;;;;;0.28;0.10;;;;;;;14.58;99.05;100605.03;10377758;28;96570;-80
2024/01/03 06:36:39;;;;;;;1.42;0.30;;;;;;;14.58;98.74;100635.03;10365940;28;96791;-80
2024/01/03 06:41:44;;;;;;;0.95;0.20;;;;;;;14.57;99.17;100616.56;10411560;28;97509;-80
2024/01/03 06:46:48;;;;;;;0.60;0.20;;;;;;;14.57;98.62;100619.22;10423517;28;96650;-80
2024/01/03 06:51:52;;;;;;;2.10;0.20;;;;;;;14.54;98.30;100641.41;10414426;28;96737;-80
2024/01/03 06:56:56;;;;;;;1.38;0.25;;;;;;;14.60;98.59;100651.72;10381816;28;96881;-80
2024/01/03 07:02:00;;;;;;;1.58;0.30;;;;;;;14.56;98.17;100662.50;10381850;28;97350;-80
2024/01/03 07:07:04;;;;;;;0.77;0.40;;;;;;;14.46;98.17;100659.47;10382001;28;96678;-80
2024/01/03 07:12:09;;;;;;;0.80;0.30;;;;;;;14.45;98.24;100655.09;10381798;28;97002;-80
2024/01/03 07:17:14;;;;;;;0.40;0.40;;;;;;;14.33;98.24;100652.22;10381624;28;96673;-80
2024/01/03 07:22:17;;;;;;;;;;;;;;;14.21;99.10;100672.16;10381692;28;96657;-80
2024/01/03 07:27:22;;;;;;;4.07;0.70;;;;;;;14.24;99.07;100656.16;10377829;28;96788;-80
2024/01/03 07:32:25;;;;;;;;;;;;;;;14.09;99.21;100656.88;10340206;28;96893;-80
2024/01/03 07:37:29;;;;;;;1.05;0.52;;;;;;;14.09;99.38;100679.84;10339956;28;96805;-80
2024/01/03 07:42:34;;;;;;;1.73;0.60;;;;;;;14.15;99.44;100684.84;10345924;28;96823;-79
2024/01/03 07:47:37;;;;;;;;;;;;;;;14.21;99.23;100658.09;10380080;28;96812;-80
2024/01/03 07:52:40;;;;;;;0.68;0.50;;;;;;;14.22;99.20;100688.91;10381057;28;97416;-80
2024/01/03 07:57:46;;;;;;;2.55;0.88;;;;;;;14.24;99.09;100701.16;10380129;28;96651;-80
2024/01/03 08:02:50;;;;;;;2.15;1.20;;;;;;;14.26;98.64;100695.78;10379959;28;97643;-80
2024/01/03 08:07:54;;;;;;;2.63;0.60;;;;;;;14.32;98.69;100706.06;10380080;28;96673;-80
2024/01/03 08:12:58;;;;;;;7.22;0.40;;;;;;;14.20;98.39;100728.69;10379929;28;96988;-80
2024/01/03 08:18:02;;;;;;;;;;;;;;;14.16;98.60;100713.88;10380022;28;97121;-80
2024/01/03 08:23:06;;;;;;;4.63;1.05;;;;;;;14.20;98.63;100696.94;10374818;28;97072;-80
2024/01/03 08:28:11;;;;;;;2.30;1.17;;;;;;;14.16;98.46;100721.81;10367050;28;96772;-80
2024/01/03 08:33:14;;;;;;;;;;;;;;;14.09;98.52;100703.66;10416505;28;96713;-80
2024/01/03 08:38:18;;;;;;;1.83;0.90;;;;;;;14.15;98.83;100708.66;10379532;28;96986;-80
2024/01/03 08:43:23;;;;;;;1.95;0.82;;;;;;;14.16;98.39;100729.75;10378626;28;96708;-80
2024/01/03 08:48:26;;;;;;;3.67;1.25;;;;;;;14.14;98.53;100723.66;10378380;28;96783;-80
2024/01/03 08:53:30;;;;;;;1.88;1.02;;;;;;;14.06;98.28;100732.91;10378413;28;96870;-80
2024/01/03 08:58:35;;;;;;;2.90;0.90;;;;;;;13.85;98.71;100724.13;10379554;28;97193;-80
2024/01/03 09:03:39;;;;;;;1.40;0.82;;;;;;;13.93;98.67;100743.19;10385725;28;97116;-80
2024/01/03 09:08:43;;;;;;;2.43;1.27;;;;;;;14.06;98.03;100733.75;10385497;28;96806;-80
2024/01/03 09:13:49;;;;;;;2.17;1.05;;;;;;;14.09;98.25;100717.75;10385563;28;96710;-80
2024/01/03 09:18:53;;;;;;;2.35;0.88;;;;;;;13.91;98.32;100723.88;10384127;28;97026;-80
2024/01/03 09:23:57;;;;;;;2.97;1.10;;;;;;;13.88;98.15;100723.16;10383991;28;97198;-80
2024/01/03 09:29:02;;;;;;;2.38;1.10;;;;;;;14.02;97.85;100748.06;10399352;28;96791;-80
2024/01/03 09:34:05;;;;;;;;;;;;;;;14.07;97.78;100761.09;10425114;28;96705;-80
2024/01/03 09:39:09;;;;;;;3.72;1.55;;;;;;;14.22;97.12;100779.78;10424297;28;96906;-80
2024/01/03 09:44:15;;;;;;;2.03;1.00;;;;;;;14.37;96.79;100783.47;10395102;28;96771;-80
2024/01/03 09:49:19;;;;;;;3.95;1.80;;;;;;;14.35;96.87;100817.16;10382074;28;97309;-80
2024/01/03 09:54:24;;;;;;;5.40;1.60;;;;;;;14.38;96.93;100823.16;10382581;28;97275;-80
2024/01/03 09:59:28;;;;;;;5.50;1.67;;;;;;;14.38;96.75;100793.16;10382032;28;97300;-80
2024/01/03 10:04:33;;;;;;;;;;;;;;;14.33;96.19;100792.53;10382262;28;96933;-80
2024/01/03 10:09:45;;;;;;;3.67;1.90;;;;;;;14.31;96.21;100802.31;10381500;28;97136;-80
2024/01/03 10:14:50;;;;;;;5.95;2.25;;;;;;;14.29;96.41;100815.63;10382371;28;96643;-80
2024/01/03 10:19:54;;;;;;;2.47;1.33;;;;;;;14.35;96.29;100815.34;10368354;28;97061;-80
2024/01/03 10:24:58;;;;;;;4.60;1.88;;;;;;;14.40;96.02;100823.91;10363818;28;97452;-80
2024/01/03 10:30:15;;;;;;;4.78;1.55;;;;;;;14.34;96.24;100833.94;10405558;28;96726;-80
2024/01/03 10:35:20;;;;;;;2.95;1.88;;;;;;;14.36;96.12;100862.06;10393098;28;97132;-80
2024/01/03 10:40:26;;;;;;;2.78;1.45;;;;;;;14.26;95.75;100863.44;10380756;28;96710;-80
2024/01/03 10:45:31;;;;;;;2.17;1.30;;;;;;;14.44;95.68;100865.22;10380891;28;96709;-79
2024/01/03 10:50:35;;;;;;;4.28;1.40;;;;;;;14.42;95.57;100882.97;10379839;28;96826;-80
2024/01/03 10:55:40;;;;;;;4.40;1.70;;;;;;;14.26;96.06;100862.56;10380497;28;96560;-80
2024/01/03 11:00:55;;;;;;;4.05;1.90;;;;;;;14.32;96.38;100857.84;10379917;28;97616;-80
2024/01/03 11:06:07;;;;;;;4.30;1.90;;;;;;;14.52;96.05;100851.66;10380605;28;97560;-80
2024/01/03 11:11:11;;;;;;;5.50;3.05;;;;;;;14.51;95.82;100842.84;10379427;28;96768;-80
2024/01/03 11:16:36;;;;;;;4.75;2.50;;;;;;;14.23;96.03;100846.81;10380281;28;96944;-79
2024/01/03 11:21:45;;;;;;;6.63;3.30;;;;;;;14.31;96.48;100861.44;10377616;28;97077;-79
2024/01/03 11:27:04;;;;;;;14.55;7.95;;;;;;;14.38;96.20;100849.63;10379337;28;97400;-79
2024/01/03 11:32:13;;;;;;;16.08;6.97;;;;;;;14.56;95.98;100866.44;10337658;28;96667;-80
2024/01/03 11:37:35;;;;;;;6.10;3.28;;;;;;;14.51;95.76;100858.72;10337664;28;96733;-79
2024/01/03 11:42:39;;;;;;;3.08;1.95;;;;;;;14.48;95.30;100852.72;10361383;28;96703;-80
2024/01/03 11:47:45;;;;;;;4.00;1.95;;;;;;;14.59;95.73;100847.78;10378390;28;96721;-80
2024/01/03 11:52:51;;;;;;;3.80;2.10;;;;;;;14.67;95.40;100832.38;10378733;28;96723;-79
2024/01/03 11:58:03;;;;;;;2.42;1.42;;;;;;;14.73;94.97;100811.75;10379513;28;96959;-79
2024/01/03 12:03:08;;;;;;;3.88;1.40;;;;;;;14.82;93.96;100804.31;10377949;28;97118;-79
2024/01/03 12:08:14;;;;;;;3.17;1.50;;;;;;;14.77;93.71;100818.63;10378410;28;96697;-79
2024/01/03 12:13:18;;;;;;;3.85;1.65;;;;;;;14.82;93.58;100821.03;10377389;28;97257;-79
2024/01/03 12:18:25;;;;;;;5.28;1.83;;;;;;;14.89;93.49;100806.56;10377107;28;96814;-79
2024/01/03 12:23:29;;;;;;;3.63;1.80;;;;;;;14.96;93.38;100804.47;10377547;28;97044;-79
2024/01/03 12:28:32;;;;;;;5.00;2.33;;;;;;;15.04;92.92;100804.97;10390305;28;96799;-79
2024/01/03 12:33:37;;;;;;;3.55;1.67;;;;;;;15.12;92.75;100798.38;10394916;28;96774;-79
2024/01/03 12:38:41;;;;;;;3.15;2.08;;;;;;;14.90;93.81;100783.59;10377654;28;97109;-79
2024/01/03 12:43:44;;;;;;;4.07;1.73;;;;;;;14.78;93.36;100763.84;10377186;28;97481;-79
2024/01/03 12:48:50;;;;;;;3.67;2.10;;;;;;;14.91;92.96;100785.28;10377175;28;96645;-79
2024/01/03 12:53:54;;;;;;;3.63;2.15;;;;;;;15.14;92.87;100793.84;10377059;28;96743;-79
2024/01/03 12:58:57;;;;;;;3.53;1.83;;;;;;;15.31;91.65;100798.31;10377376;28;96816;-79
2024/01/03 13:04:02;;;;;;;4.53;2.30;;;;;;;15.32;92.08;100773.56;10375371;28;96804;-79
2024/01/03 13:09:06;;;;;;;2.65;1.73;;;;;;;15.52;91.94;100766.28;10376236;28;97273;-79
2024/01/03 13:14:09;;;;;;;9.23;2.25;;;;;;;15.63;91.49;100766.56;10289342;22;97129;-79
2024/01/03 13:19:14;;;;;;;4.95;2.60;;;;;;;15.73;90.51;100743.94;10269443;28;97320;-79
2024/01/03 13:24:18;;;;;;;5.38;2.35;;;;;;;15.69;90.57;100723.81;10252817;28;96758;-79
2024/01/03 13:29:22;;;;;;;5.20;2.05;;;;;;;15.95;90.43;100735.69;10261016;28;96849;-79
2024/01/03 13:34:27;;;;;;;4.78;2.50;;;;;;;16.01;90.09;100727.41;10294035;28;97154;-79
2024/01/03 13:39:31;;;;;;;4.68;1.77;;;;;;;15.96;89.57;100731.25;10287516;28;96768;-79
2024/01/03 13:44:35;;;;;;;3.90;1.75;;;;;;;15.79;89.64;100738.31;10253459;28;97181;-79
2024/01/03 13:49:40;;;;;;;;;;;;;;;15.59;89.54;100729.69;10260216;28;96694;-79
2024/01/03 13:54:44;;;;;;;6.13;2.40;;;;;;;15.55;90.41;100738.72;10258508;28;96833;-78
2024/01/03 13:59:47;;;;;;;7.70;2.40;;;;;;;15.52;90.46;100752.16;10259186;28;97115;-79
2024/01/03 14:04:52;;;;;;;5.93;2.22;;;;;;;15.42;90.01;100761.53;10258835;28;97015;-79
2024/01/03 14:09:55;;;;;;;;;;;;;;;15.34;88.67;100753.94;10218435;28;97623;-79
2024/01/03 14:14:59;;;;;;;3.40;1.92;;;;;;;15.26;90.42;100742.91;10237055;28;96690;-79
2024/01/03 14:20:12;;;;;;;5.87;2.20;;;;;;;15.27;90.20;100746.38;10258705;28;97139;-79
2024/01/03 14:25:15;;;;;;;6.63;2.30;;;;;;;15.20;89.75;100752.94;10258393;28;96804;-79
2024/01/03 14:30:20;;;;;;;3.60;1.43;;;;;;;15.00;89.96;100753.91;10259079;28;96701;-80
2024/01/03 14:35:25;;;;;;;7.78;2.25;;;;;;;14.93;90.74;100764.88;10258202;28;96690;-80
2024/01/03 14:40:29;;;;;;;5.90;1.90;;;;;;;14.36;90.43;100774.72;10257961;28;96844;-80
2024/01/03 14:45:32;;;;;;;5.03;1.60;;;;;;;14.29;91.52;100777.69;10256838;28;97102;-80
2024/01/03 14:50:37;;;;;;;5.28;1.25;;;;;;;14.24;91.78;100800.88;10257303;28;96875;-80
2024/01/03 14:55:40;;;;;;;;;;;;;;;14.11;90.79;100802.34;10258473;28;97313;-79
2024/01/03 15:00:44;;;;;;;3.35;1.02;;;;;;;14.01;91.56;100807.19;10257719;28;96736;-80
2024/01/03 15:05:49;;;;;;;4.13;1.27;;;;;;;14.07;91.84;100804.31;10257691;28;97442;-80
2024/01/03 15:10:53;;;;;;;3.20;1.02;;;;;;;14.06;91.94;100804.34;10216340;28;96755;-80
2024/01/03 15:15:57;;;;;;;3.20;1.15;;;;;;;14.00;91.86;100799.31;10216782;28;96731;-80
2024/01/03 15:21:02;;;;;;;5.72;0.90;;;;;;;13.98;91.61;100802.03;10219931;28;97018;-80
2024/01/03 15:26:07;;;;;;;5.15;1.25;;;;;;;13.95;91.84;100798.66;10256559;28;96874;-80
2024/01/03 15:31:12;;;;;;;7.82;1.73;;;;;;;13.89;91.27;100783.06;10256406;28;97229;-80
2024/01/03 15:36:19;;;;;;;4.80;1.83;;;;;;;13.89;91.60;100790.97;10255413;28;96700;-80
2024/01/03 15:41:22;;;;;;;9.82;2.20;;;;;;;13.85;91.61;100784.97;10255930;28;96655;-80
2024/01/03 15:46:28;;;;;;;7.15;2.10;;;;;;;13.91;91.77;100768.84;10255869;28;96877;-80
2024/01/03 15:51:32;;;;;;;6.10;2.33;;;;;;;13.92;91.83;100773.19;10255900;28;96654;-80
2024/01/03 15:56:36;;;;;;;5.47;2.70;;;;;;;13.93;92.02;100774.94;10255430;28;96743;-80
2024/01/03 16:01:40;;;;;;;8.20;2.70;;;;;;;14.04;91.13;100774.47;10262604;28;96599;-80
2024/01/03 16:06:45;;;;;;;5.97;2.17;;;;;;;14.06;90.94;100781.41;10280639;28;97029;-80
2024/01/03 16:11:49;;;;;;;5.88;1.90;;;;;;;14.06;90.73;100781.41;10254664;28;96910;-79
2024/01/03 16:16:52;;;;;;;5.60;1.80;;;;;;;14.14;90.75;100778.41;10215169;28;96806;-79
2024/01/03 16:21:57;;;;;;;8.25;1.70;;;;;;;14.22;90.60;100790.38;10214420;28;96716;-79
2024/01/03 16:27:04;;;;;;;;;;;;;;;14.08;90.12;100791.91;10213323;28;97165;-79
2024/01/03 16:32:10;;;;;;;4.70;1.73;;;;;;;13.98;91.31;100780.88;10241761;28;96757;-79
2024/01/03 16:37:16;;;;;;;5.35;1.80;;;;;;;13.85;91.44;100795.56;10254541;28;96703;-80
2024/01/03 16:42:20;;;;;;;6.63;2.47;;;;;;;13.85;91.96;100795.56;10253372;28;96884;-79
2024/01/03 16:47:23;;;;;;;4.72;2.33;;;;;;;13.87;91.63;100796.34;10254461;28;96940;-79
2024/01/03 16:52:28;;;;;;;4.68;1.85;;;;;;;13.78;91.45;100788.81;10253852;28;97281;-79
2024/01/03 16:57:32;;;;;;;8.98;1.98;;;;;;;13.59;91.41;100787.91;10253899;28;96678;-80
2024/01/03 17:02:36;;;;;;;6.35;2.65;;;;;;;13.45;91.59;100793.78;10254518;28;96774;-80
2024/01/03 17:07:41;;;;;;;8.57;3.40;;;;;;;13.42;91.55;100793.91;10253275;28;96879;-80
2024/01/03 17:12:44;;;;;;;;;;;;;;;13.38;91.96;100789.69;10253731;28;96578;-80
2024/01/03 17:17:48;;;;;;;9.23;3.72;;;;;;;13.46;91.49;100802.59;10253204;28;96839;-79
2024/01/03 17:22:53;;;;;;;11.38;3.92;;;;;;;13.48;91.41;100804.22;10258485;28;96740;-80
2024/01/03 17:27:56;;;;;;;;;;;;;;;13.42;91.42;100824.78;10260500;28;96765;-79
2024/01/03 17:33:00;;;;;;;9.40;3.28;;;;;;;13.32;91.59;100824.31;10260403;28;96753;-80
2024/01/03 17:38:05;;;;;;;5.63;2.38;;;;;;;13.18;91.60;100825.81;10260076;28;96628;-79
2024/01/03 17:43:08;;;;;;;;;;;;;;;13.22;91.46;100830.06;10260062;28;98333;-80
2024/01/03 17:48:12;;;;;;;5.90;2.72;;;;;;;13.06;91.90;100831.59;10259809;28;96736;-80
2024/01/03 17:53:18;;;;;;;6.87;3.00;;;;;;;12.99;91.96;100830.97;10260134;28;96701;-80
2024/01/03 17:58:21;;;;;;;5.97;2.47;;;;;;;12.88;92.23;100842.91;10272735;28;97281;-80
2024/01/03 18:03:27;;;;;;;5.82;3.00;;;;;;;13.00;92.18;100832.69;10293682;28;96739;-79
2024/01/03 18:08:32;;;;;;;8.32;3.00;;;;;;;13.06;92.30;100831.59;10228720;28;96646;-80
2024/01/03 18:13:37;;;;;;;5.40;2.85;;;;;;;12.95;92.14;100842.59;10241757;28;96708;-79
2024/01/03 18:18:40;;;;;;;6.63;3.10;;;;;;;12.88;92.70;100862.22;10258751;28;97222;-80
2024/01/03 18:23:45;;;;;;;8.00;3.65;;;;;;;12.87;92.37;100862.28;10258446;28;96715;-79
2024/01/03 18:28:49;;;;;;;;;;;;;;;12.80;92.44;100874.03;10258753;28;96690;-80
2024/01/03 18:33:52;;;;;;;6.65;3.28;;;;;;;12.81;92.53;100878.41;10258014;28;96754;-80
2024/01/03 18:38:58;;;;;;;7.53;3.55;;;;;;;12.89;92.37;100860.47;10257656;28;96677;-80
2024/01/03 18:44:02;;;;;;;9.68;4.20;;;;;;;12.79;92.29;100865.22;10258347;28;96811;-79
2024/01/03 18:49:05;;;;;;;9.50;3.70;;;;;;;12.66;92.36;100866.63;10257768;28;96788;-80
2024/01/03 18:54:12;;;;;;;9.27;4.13;;;;;;;12.59;92.57;100867.75;10262284;28;96808;-80
2024/01/03 18:59:16;;;;;;;10.93;4.68;;;;;;;12.78;92.14;100862.66;10296711;28;96628;-80
2024/01/03 19:04:19;;;;;;;16.05;7.35;;;;;;;12.81;92.11;100844.91;10276592;28;96864;-80
2024/01/03 19:09:26;;;;;;;14.35;7.78;;;;;;;12.70;92.08;100855.03;10256310;28;96785;-79
2024/01/03 19:14:30;;;;;;;12.88;7.03;;;;;;;12.69;92.19;100855.94;10256730;28;96880;-80
2024/01/03 19:19:33;;;;;;;11.18;7.55;;;;;;;12.58;92.18;100861.59;10256935;28;97057;-79
2024/01/03 19:24:39;;;;;;;10.63;5.55;;;;;;;12.45;92.11;100872.69;10256122;28;97003;-80
2024/01/03 19:29:42;;;;;;;11.80;6.32;;;;;;;12.50;92.37;100862.81;10256385;28;97217;-80
2024/01/03 19:34:46;;;;;;;10.77;6.22;;;;;;;12.35;92.52;100877.47;10257204;28;97474;-80
2024/01/03 19:39:52;;;;;;;9.93;5.60;;;;;;;12.38;92.55;100884.38;10255674;28;96821;-79
2024/01/03 19:44:55;;;;;;;;;;;;;;;12.31;92.70;100880.25;10255600;28;96915;-80
2024/01/03 19:50:00;;;;;;;11.98;5.25;;;;;;;12.21;92.89;100897.34;10255905;28;96739;-80
2024/01/03 19:55:08;;;;;;;9.98;5.97;;;;;;;12.29;92.85;100896.16;10277144;28;98471;-80
2024/01/03 20:00:13;;;;;;;9.43;5.60;;;;;;;12.30;92.59;100889.09;10255062;28;96694;-80
2024/01/03 20:05:17;;;;;;;8.15;4.75;;;;;;;12.26;92.73;100892.75;10255046;28;96788;-80
2024/01/03 20:10:25;;;;;;;9.48;5.30;;;;;;;12.23;92.86;100887.59;10254029;28;96818;-80
2024/01/03 20:15:28;;;;;;;;;;;;;;;12.30;92.71;100889.97;10256002;28;96939;-80
2024/01/03 20:20:32;;;;;;;12.57;6.07;;;;;;;12.31;92.59;100888.16;10255182;28;96841;-80
2024/01/03 20:25:38;;;;;;;13.02;6.38;;;;;;;12.35;92.44;100884.50;10255518;28;96730;-80
2024/01/03 20:30:41;;;;;;;17.02;7.88;;;;;;;12.36;92.59;100881.81;10254658;28;96970;-80
2024/01/03 20:35:45;;;;;;;14.40;7.20;;;;;;;12.29;92.66;100884.72;10254479;28;96822;-80
2024/01/03 20:40:50;;;;;;;12.70;7.05;;;;;;;12.22;92.60;100880.63;10252988;28;97262;-80
2024/01/03 20:45:54;;;;;;;16.00;7.30;;;;;;;12.26;92.70;100871.66;10253953;28;97509;-80
2024/01/03 20:50:57;;;;;;;11.90;5.82;;;;;;;12.08;92.51;100880.25;10281261;28;96974;-80
2024/01/03 20:56:03;;;;;;;13.63;5.78;;;;;;;12.13;92.61;100883.56;10299057;28;96658;-80
2024/01/03 21:01:06;;;;;;;13.82;6.38;;;;;;;12.17;92.63;100879.88;10282576;28;96875;-80
2024/01/03 21:06:10;;;;;;;11.80;7.03;;;;;;;12.07;92.61;100879.38;10261003;28;96761;-80
2024/01/03 21:11:15;;;;;;;15.38;6.57;;;;;;;12.07;92.50;100879.38;10260152;28;97450;-80
2024/01/03 21:16:18;;;;;;;18.65;7.43;;;;;;;12.03;92.57;100876.91;10261395;28;96941;-80
2024/01/03 21:21:22;;;;;;;15.90;6.53;;;;;;;11.94;92.79;100867.56;10259960;28;97673;-80
2024/01/03 21:26:28;;;;;;;14.85;6.43;;;;;;;11.92;92.89;100857.97;10260727;28;96989;-80
2024/01/03 21:31:32;;;;;;;19.20;7.03;;;;;;;11.84;93.35;100865.28;10259593;28;96636;-80
2024/01/03 21:36:37;;;;;;;33.50;17.58;;;;;;;11.70;93.21;100857.00;10260104;28;96685;-80
2024/01/03 21:41:46;;;;;;;21.83;9.27;;;;;;;11.89;93.67;100858.91;10259396;28;97129;-80
2024/01/03 21:46:49;;;;;;;14.68;6.82;;;;;;;11.89;93.48;100877.38;10269268;28;96709;-80
2024/01/03 21:51:53;;;;;;;21.85;6.72;;;;;;;11.63;93.50;100873.94;10298865;28;96681;-80
2024/01/03 21:56:58;;;;;;;16.80;6.25;;;;;;;11.70;94.02;100860.47;10259429;28;96698;-80
2024/01/03 22:02:01;;;;;;;13.18;4.85;;;;;;;11.62;93.77;100866.91;10258748;28;96708;-79
2024/01/03 22:07:05;;;;;;;17.80;6.30;;;;;;;11.59;93.94;100856.50;10259071;28;96684;-80
2024/01/03 22:12:10;;;;;;;15.70;6.43;;;;;;;11.56;94.48;100849.56;10257757;28;96856;-80
2024/01/03 22:17:14;;;;;;;11.38;6.13;;;;;;;11.49;94.29;100842.78;10259164;28;97036;-80
2024/01/03 22:22:17;;;;;;;10.85;5.55;;;;;;;11.64;94.13;100842.25;10257634;28;97947;-80
2024/01/03 22:27:22;;;;;;;13.88;4.93;;;;;;;11.44;93.88;100836.81;10258363;28;96721;-80
2024/01/03 22:32:26;;;;;;;13.20;6.32;;;;;;;11.44;94.50;100838.56;10258383;28;96638;-80
2024/01/03 22:37:29;;;;;;;18.38;7.90;;;;;;;11.34;94.07;100835.38;10258241;28;96700;-79
2024/01/03 22:42:35;;;;;;;11.02;5.20;;;;;;;11.46;94.45;100823.56;10257884;28;96709;-79
2024/01/03 22:47:39;;;;;;;12.10;5.32;;;;;;;11.37;93.99;100808.94;10258141;28;96728;-80
2024/01/03 22:52:43;;;;;;;11.50;5.05;;;;;;;11.30;94.08;100807.41;10257886;28;97186;-80
2024/01/03 22:57:48;;;;;;;11.07;4.80;;;;;;;10.97;94.58;100804.06;10258294;28;96683;-80
2024/01/03 23:02:53;;;;;;;13.70;4.88;;;;;;;10.92;95.29;100805.16;10256980;28;96677;-79
2024/01/03 23:07:56;;;;;;;;;;;;;;;10.78;96.28;100824.03;10257541;28;96681;-79
2024/01/03 23:13:01;;;;;;;10.65;5.30;;;;;;;10.95;95.92;100819.09;10256151;28;97246;-79
2024/01/03 23:18:04;;;;;;;;;;;;;;;10.95;95.46;100823.47;10256534;28;97026;-79
2024/01/03 23:23:09;;;;;;;10.63;5.38;;;;;;;11.06;94.91;100826.63;10256967;28;97692;-79
2024/01/03 23:28:14;;;;;;;8.07;4.50;;;;;;;11.24;94.43;100826.91;10256314;28;97034;-79
2024/01/03 23:33:18;;;;;;;9.55;4.70;;;;;;;11.26;94.52;100822.47;10256765;28;96640;-79
2024/01/03 23:38:22;;;;;;;10.80;4.65;;;;;;;11.04;94.00;100807.38;10256551;28;97044;-80
2024/01/03 23:43:27;;;;;;;9.95;4.88;;;;;;;10.85;93.78;100816.78;10275716;28;96650;-79
2024/01/03 23:48:31;;;;;;;14.38;6.25;;;;;;;10.99;94.08;100804.03;10296990;28;96791;-79
2024/01/03 23:53:36;;;;;;;9.55;5.10;;;;;;;10.79;94.00;100801.16;10272928;28;96771;-79
2024/01/03 23:58:41;;;;;;;6.90;4.53;;;;;;;10.71;94.00;100800.56;10255410;28;96770;-80
